Time;durP1;ratioP1;P1;durP2;ratioP2;P2;SDS_P1;SDS_P2;PMS_P1;PMS_P2;Temp;Humidity;BMP_temperature;BMP_pressure;BME280_temperature;BME280_humidity;BME280_pressure;Samples;Min_cycle;Max_cycle;Signal;HPM_P1;HPM_P2
2023/06/04 00:02:02;;;;;;;;;;;21.00;92.00;;;;;;5095004;28;19911;-39
2023/06/04 00:04:28;;;;;;;;;;;21.00;92.00;;;;;;5095102;28;19904;-39
2023/06/04 00:06:53;;;;;;;;;;;21.00;92.00;;;;;;5094962;28;19951;-39
2023/06/04 00:09:19;;;;;;;;;;;21.00;92.00;;;;;;5095002;28;19957;-40
2023/06/04 00:11:45;;;;;;;;;;;21.00;92.00;;;;;;5094919;28;19908;-39
2023/06/04 00:14:11;;;;;;;;;;;21.00;92.00;;;;;;5094538;28;20254;-39
2023/06/04 00:16:36;;;;;;;;;;;21.00;92.10;;;;;;5094574;28;19904;-39
2023/06/04 00:19:02;;;;;;;;;;;21.00;92.10;;;;;;5094847;28;20331;-39
2023/06/04 00:21:28;;;;;;;;;;;21.00;92.10;;;;;;5094424;28;19904;-39
2023/06/04 00:23:53;;;;;;;;;;;21.00;92.10;;;;;;5094465;28;20359;-39
2023/06/04 00:26:19;;;;;;;;;;;21.00;92.10;;;;;;5094448;28;19908;-40
2023/06/04 00:28:44;;;;;;;;;;;21.00;92.20;;;;;;5094662;28;20290;-39
2023/06/04 00:31:12;;;;;;;;;;;21.00;92.20;;;;;;5094344;28;20458;-39
2023/06/04 00:33:38;;;;;;;;;;;21.00;92.20;;;;;;5094164;28;20364;-39
2023/06/04 00:36:04;;;;;;;;;;;21.00;92.20;;;;;;5094244;28;19908;-39
2023/06/04 00:38:29;;;;;;;;;;;21.00;92.20;;;;;;5094520;28;19949;-39
2023/06/04 00:40:55;;;;;;;;;;;21.00;92.20;;;;;;5094175;28;19969;-39
2023/06/04 00:43:20;;;;;;;;;;;21.00;92.20;;;;;;5094180;28;19904;-40
2023/06/04 00:45:46;;;;;;;;;;;21.00;92.30;;;;;;5094619;28;20347;-39
2023/06/04 00:48:11;;;;;;;;;;;21.00;92.30;;;;;;5094371;28;19904;-39
2023/06/04 00:50:38;;;;;;;;;;;21.00;92.30;;;;;;5094102;28;19904;-39
2023/06/04 00:53:04;;;;;;;;;;;21.00;92.30;;;;;;5093909;28;20362;-39
2023/06/04 00:55:31;;;;;;;;;;;21.00;92.30;;;;;;5094332;28;19904;-39
2023/06/04 00:57:57;;;;;;;;;;;21.00;92.30;;;;;;5094336;28;19911;-39
2023/06/04 01:00:22;;;;;;;;;;;21.00;92.30;;;;;;5094051;28;19903;-39
2023/06/04 01:02:51;;;;;;;;;;;21.00;92.30;;;;;;5094401;28;19957;-39
2023/06/04 01:05:19;;;;;;;;;;;21.00;92.40;;;;;;5076055;28;19912;-39
2023/06/04 01:07:46;;;;;;;;;;;21.00;92.30;;;;;;5093988;28;19908;-39
2023/06/04 01:10:13;;;;;;;;;;;21.00;92.40;;;;;;5094141;28;19911;-39
2023/06/04 01:12:42;;;;;;;;;;;21.00;92.40;;;;;;5093914;28;19911;-39
2023/06/04 01:15:07;;;;;;;;;;;21.00;92.40;;;;;;5093868;28;20270;-39
2023/06/04 01:17:53;;;;;;;;;;;21.00;92.40;;;;;;5093908;28;19904;-39
2023/06/04 01:20:24;;;;;;;;;;;21.00;92.40;;;;;;5093762;28;19908;-39
2023/06/04 01:23:01;;;;;;;;;;;21.00;92.40;;;;;;5076197;28;19905;-40
2023/06/04 01:25:34;;;;;;;;;;;21.00;91.80;;;;;;5092496;28;20006;-39
2023/06/04 01:28:00;;;;;;;;;;;21.00;92.00;;;;;;5093998;28;19954;-39
2023/06/04 01:30:33;;;;;;;;;;;21.00;92.10;;;;;;5093681;28;19908;-38
2023/06/04 01:32:59;;;;;;;;;;;21.00;92.10;;;;;;5093761;28;19904;-39
2023/06/04 01:35:25;;;;;;;;;;;21.00;92.10;;;;;;5112375;28;20406;-39
2023/06/04 01:37:51;;;;;;;;;;;21.00;92.20;;;;;;5114172;28;19903;-40
2023/06/04 01:40:17;;;;;;;;;;;21.00;92.20;;;;;;5106643;28;19908;-39
2023/06/04 01:42:42;;;;;;;;;;;21.00;92.30;;;;;;5093609;28;20339;-39
2023/06/04 01:45:09;;;;;;;;;;;21.00;92.30;;;;;;5096707;28;19920;-39
2023/06/04 01:47:35;;;;;;;;;;;20.90;92.50;;;;;;5097538;28;19911;-39
2023/06/04 01:50:05;;;;;;;;;;;21.00;92.30;;;;;;5097551;28;19907;-39
2023/06/04 01:52:31;;;;;;;;;;;20.90;92.30;;;;;;5116866;28;19957;-38
2023/06/04 01:54:57;;;;;;;;;;;21.00;92.40;;;;;;5117914;28;20235;-39
2023/06/04 01:57:22;;;;;;;;;;;21.00;92.40;;;;;;5117705;28;20304;-40
2023/06/04 01:59:48;;;;;;;;;;;21.00;92.40;;;;;;5118400;28;19904;-39
2023/06/04 02:02:14;;;;;;;;;;;21.00;92.40;;;;;;5117576;28;20258;-39
2023/06/04 02:04:41;;;;;;;;;;;21.00;92.40;;;;;;5117845;28;19955;-39
2023/06/04 02:07:10;;;;;;;;;;;21.00;92.40;;;;;;5117799;28;19919;-39
2023/06/04 02:09:36;;;;;;;;;;;21.00;92.40;;;;;;5116688;28;19911;-39
2023/06/04 02:12:01;;;;;;;;;;;21.00;92.40;;;;;;5117401;28;20410;-38
2023/06/04 02:14:27;;;;;;;;;;;21.00;92.50;;;;;;5117978;28;19904;-39
2023/06/04 02:16:53;;;;;;;;;;;20.90;92.50;;;;;;5117362;28;20293;-39
2023/06/04 02:19:20;;;;;;;;;;;20.90;92.50;;;;;;5110378;28;20315;-39
2023/06/04 02:21:46;;;;;;;;;;;21.00;92.50;;;;;;5096931;28;19912;-39
2023/06/04 02:24:11;;;;;;;;;;;21.00;92.50;;;;;;5096962;28;19995;-40
2023/06/04 02:26:37;;;;;;;;;;;21.00;92.50;;;;;;5098702;28;19915;-39
2023/06/04 02:29:02;;;;;;;;;;;21.00;92.50;;;;;;5117452;28;19903;-39
2023/06/04 02:31:28;;;;;;;;;;;20.90;92.50;;;;;;5099057;28;20259;-39
2023/06/04 02:33:55;;;;;;;;;;;21.00;92.50;;;;;;5117304;28;19903;-39
2023/06/04 02:36:21;;;;;;;;;;;20.90;92.50;;;;;;5117250;28;19904;-39
2023/06/04 02:38:46;;;;;;;;;;;21.00;92.60;;;;;;5112382;28;19961;-39
2023/06/04 02:41:12;;;;;;;;;;;21.00;92.60;;;;;;5078895;28;20003;-39
2023/06/04 02:43:37;;;;;;;;;;;21.00;92.60;;;;;;5096676;28;19904;-39
2023/06/04 02:46:02;;;;;;;;;;;21.00;92.60;;;;;;5096714;28;20376;-39
2023/06/04 02:48:28;;;;;;;;;;;21.00;92.60;;;;;;5096732;28;19966;-39
2023/06/04 02:50:53;;;;;;;;;;;21.00;92.60;;;;;;5096352;28;19911;-39
2023/06/04 02:53:20;;;;;;;;;;;20.90;92.60;;;;;;5096406;28;19910;-39
2023/06/04 02:55:46;;;;;;;;;;;20.90;92.60;;;;;;5096047;28;19908;-39
2023/06/04 02:58:11;;;;;;;;;;;21.00;92.60;;;;;;5096649;28;20369;-40
2023/06/04 03:00:37;;;;;;;;;;;20.90;92.60;;;;;;5096735;28;19919;-39
2023/06/04 03:03:02;;;;;;;;;;;20.90;92.60;;;;;;5096375;28;19990;-39
2023/06/04 03:05:30;;;;;;;;;;;20.90;92.60;;;;;;5094520;28;19912;-40
2023/06/04 03:07:57;;;;;;;;;;;20.90;92.60;;;;;;5075964;28;20361;-39
2023/06/04 03:10:22;;;;;;;;;;;20.90;92.60;;;;;;5094073;28;19904;-41
2023/06/04 03:12:48;;;;;;;;;;;20.90;92.60;;;;;;5075985;28;19904;-39
2023/06/04 03:15:13;;;;;;;;;;;20.90;92.70;;;;;;5093777;28;20311;-39
2023/06/04 03:17:39;;;;;;;;;;;21.00;92.70;;;;;;5094007;28;19904;-39
2023/06/04 03:20:07;;;;;;;;;;;20.90;92.70;;;;;;5094909;28;19908;-39
2023/06/04 03:22:33;;;;;;;;;;;20.90;92.70;;;;;;5095689;28;19912;-39
2023/06/04 03:24:59;;;;;;;;;;;20.90;92.70;;;;;;5095870;28;19903;-39
2023/06/04 03:27:24;;;;;;;;;;;20.90;92.70;;;;;;5095868;28;19905;-39
2023/06/04 03:29:50;;;;;;;;;;;20.90;92.70;;;;;;5095934;28;19919;-39
2023/06/04 03:32:18;;;;;;;;;;;20.90;92.70;;;;;;5095759;28;19915;-39
2023/06/04 03:34:44;;;;;;;;;;;20.90;92.70;;;;;;5095464;28;20258;-39
2023/06/04 03:37:09;;;;;;;;;;;20.90;92.70;;;;;;5095662;28;19910;-39
2023/06/04 03:39:35;;;;;;;;;;;20.90;92.70;;;;;;5095609;28;20256;-39
2023/06/04 03:42:00;;;;;;;;;;;20.90;92.70;;;;;;5095316;28;19904;-39
2023/06/04 03:44:26;;;;;;;;;;;20.90;92.70;;;;;;5095514;28;19920;-39
2023/06/04 03:46:51;;;;;;;;;;;21.00;92.70;;;;;;5095482;28;20023;-39
2023/06/04 03:49:17;;;;;;;;;;;21.00;92.70;;;;;;5077286;28;19904;-39
2023/06/04 03:51:43;;;;;;;;;;;21.00;92.70;;;;;;5095082;28;19904;-39
2023/06/04 03:54:08;;;;;;;;;;;21.00;92.70;;;;;;5095025;28;19904;-39
2023/06/04 03:56:34;;;;;;;;;;;21.00;92.70;;;;;;5095233;28;19959;-39
2023/06/04 03:59:00;;;;;;;;;;;21.00;92.70;;;;;;5095325;28;19911;-39
2023/06/04 04:01:26;;;;;;;;;;;21.00;92.70;;;;;;5094874;28;20395;-39
2023/06/04 04:03:52;;;;;;;;;;;21.00;92.70;;;;;;5095172;28;19992;-39
2023/06/04 04:06:18;;;;;;;;;;;21.00;92.70;;;;;;5094231;28;19919;-39
2023/06/04 04:08:44;;;;;;;;;;;21.00;92.70;;;;;;5095418;28;19904;-39
2023/06/04 04:11:13;;;;;;;;;;;21.00;92.70;;;;;;5094871;28;20281;-39
2023/06/04 04:13:38;;;;;;;;;;;21.00;92.70;;;;;;5094853;28;19904;-39
2023/06/04 04:16:03;;;;;;;;;;;21.10;92.60;;;;;;5094899;28;19963;-38
2023/06/04 04:18:32;;;;;;;;;;;21.00;92.60;;;;;;5094941;28;19950;-39
2023/06/04 04:20:57;;;;;;;;;;;21.10;92.60;;;;;;5094531;28;20304;-39
2023/06/04 04:23:23;;;;;;;;;;;21.10;92.60;;;;;;5095227;28;19904;-39
2023/06/04 04:25:49;;;;;;;;;;;21.10;92.50;;;;;;5094688;28;20011;-39
2023/06/04 04:28:17;;;;;;;;;;;21.10;92.50;;;;;;5094740;28;19939;-38
2023/06/04 04:30:42;;;;;;;;;;;21.10;92.50;;;;;;5094769;28;19904;-39
2023/06/04 04:33:08;;;;;;;;;;;21.10;92.50;;;;;;5094734;28;20320;-39
2023/06/04 04:35:34;;;;;;;;;;;21.10;92.50;;;;;;5076684;28;19904;-39
2023/06/04 04:38:03;;;;;;;;;;;21.10;92.50;;;;;;5094688;28;20003;-39
2023/06/04 04:40:28;;;;;;;;;;;21.10;92.40;;;;;;5094568;28;19949;-39
2023/06/04 04:42:54;;;;;;;;;;;21.20;92.50;;;;;;5094577;28;19908;-39
2023/06/04 04:45:20;;;;;;;;;;;21.20;92.50;;;;;;5094480;28;19916;-39
2023/06/04 04:47:46;;;;;;;;;;;21.10;92.40;;;;;;5094129;28;19914;-39
2023/06/04 04:50:12;;;;;;;;;;;21.20;92.50;;;;;;5094218;28;19904;-38
2023/06/04 04:52:37;;;;;;;;;;;21.20;92.50;;;;;;5094100;28;19904;-39
2023/06/04 04:55:03;;;;;;;;;;;21.20;92.50;;;;;;5094114;28;19911;-39
2023/06/04 04:57:29;;;;;;;;;;;21.20;92.50;;;;;;5094437;28;19999;-38
2023/06/04 04:59:54;;;;;;;;;;;21.20;92.50;;;;;;5094087;28;19994;-39
2023/06/04 05:02:20;;;;;;;;;;;21.20;92.50;;;;;;5094044;28;19904;-39
2023/06/04 05:04:45;;;;;;;;;;;21.20;92.50;;;;;;5094033;28;19919;-39
2023/06/04 05:07:11;;;;;;;;;;;21.20;92.50;;;;;;5093927;28;20315;-39
2023/06/04 05:09:37;;;;;;;;;;;21.20;92.50;;;;;;5094269;28;19904;-39
2023/06/04 05:12:02;;;;;;;;;;;21.20;92.40;;;;;;5093957;28;19904;-39
2023/06/04 05:14:28;;;;;;;;;;;21.20;92.40;;;;;;5094202;28;19995;-39
2023/06/04 05:16:56;;;;;;;;;;;21.20;92.40;;;;;;5094242;28;20281;-39
2023/06/04 05:19:22;;;;;;;;;;;21.20;92.40;;;;;;5097962;28;19911;-39
2023/06/04 05:21:48;;;;;;;;;;;21.20;92.40;;;;;;5098247;28;20262;-39
2023/06/04 05:24:14;;;;;;;;;;;21.20;92.40;;;;;;5098233;28;19904;-39
2023/06/04 05:26:40;;;;;;;;;;;21.20;92.40;;;;;;5079987;28;20343;-39
2023/06/04 05:29:05;;;;;;;;;;;21.20;92.40;;;;;;5098163;28;19908;-39
2023/06/04 05:31:34;;;;;;;;;;;21.20;92.40;;;;;;5097951;28;20280;-39
2023/06/04 05:34:01;;;;;;;;;;;21.20;92.40;;;;;;5098078;28;20227;-39
2023/06/04 05:36:30;;;;;;;;;;;21.20;92.40;;;;;;5097893;28;20003;-39
2023/06/04 05:38:59;;;;;;;;;;;21.20;92.40;;;;;;5097906;28;20346;-40
2023/06/04 05:41:25;;;;;;;;;;;21.20;92.40;;;;;;5097862;28;19904;-39
2023/06/04 05:43:51;;;;;;;;;;;21.20;92.40;;;;;;5097435;28;20003;-39
2023/06/04 05:46:16;;;;;;;;;;;21.20;92.40;;;;;;5097821;28;20035;-39
2023/06/04 05:48:42;;;;;;;;;;;21.20;92.40;;;;;;5097462;28;20240;-39
2023/06/04 05:51:07;;;;;;;;;;;21.20;92.40;;;;;;5097665;28;19904;-38
2023/06/04 05:53:33;;;;;;;;;;;21.20;92.40;;;;;;5097310;28;19927;-38
2023/06/04 05:55:58;;;;;;;;;;;21.20;92.30;;;;;;5097622;28;19947;-39
2023/06/04 05:58:24;;;;;;;;;;;21.20;92.30;;;;;;5097594;28;19904;-38
2023/06/04 06:00:50;;;;;;;;;;;21.20;92.30;;;;;;5097244;28;20262;-38
2023/06/04 06:03:16;;;;;;;;;;;21.20;92.40;;;;;;5079259;28;20373;-39
2023/06/04 06:05:42;;;;;;;;;;;21.20;92.30;;;;;;5096865;28;19912;-39
2023/06/04 06:08:08;;;;;;;;;;;21.20;92.30;;;;;;5097742;28;19904;-38
2023/06/04 06:10:33;;;;;;;;;;;21.20;92.20;;;;;;5097378;28;19904;-38
2023/06/04 06:13:00;;;;;;;;;;;21.20;92.20;;;;;;5079231;28;19904;-38
2023/06/04 06:15:26;;;;;;;;;;;21.20;92.30;;;;;;5097249;28;19908;-38
2023/06/04 06:17:51;;;;;;;;;;;21.20;92.40;;;;;;5078949;28;19927;-38
2023/06/04 06:20:17;;;;;;;;;;;21.20;92.40;;;;;;5096932;28;19918;-38
2023/06/04 06:22:43;;;;;;;;;;;21.20;92.40;;;;;;5098050;28;19918;-38
2023/06/04 06:25:09;;;;;;;;;;;21.20;92.40;;;;;;5100915;28;19999;-39
2023/06/04 06:27:35;;;;;;;;;;;21.20;92.40;;;;;;5096657;28;19909;-38
2023/06/04 06:30:00;;;;;;;;;;;21.20;92.40;;;;;;5095692;28;19908;-38
2023/06/04 06:32:27;;;;;;;;;;;21.20;92.40;;;;;;5096809;28;19918;-38
2023/06/04 06:34:52;;;;;;;;;;;21.20;92.50;;;;;;5096470;28;19937;-38
2023/06/04 06:37:18;;;;;;;;;;;21.20;92.40;;;;;;5096430;28;19952;-38
2023/06/04 06:39:43;;;;;;;;;;;21.20;92.30;;;;;;5098957;28;19908;-38
2023/06/04 06:42:09;;;;;;;;;;;21.20;92.20;;;;;;5078600;28;19999;-39
2023/06/04 06:44:34;;;;;;;;;;;21.20;92.20;;;;;;5096260;28;19926;-38
2023/06/04 06:46:59;;;;;;;;;;;21.20;92.20;;;;;;5096446;28;20358;-39
2023/06/04 06:49:25;;;;;;;;;;;21.20;92.00;;;;;;5096229;28;20355;-38
2023/06/04 06:51:51;;;;;;;;;;;21.20;91.90;;;;;;5096462;28;19999;-38
2023/06/04 06:54:16;;;;;;;;;;;21.20;91.80;;;;;;5096309;28;19951;-38
2023/06/04 06:56:42;;;;;;;;;;;21.20;91.90;;;;;;5096904;28;20265;-38
2023/06/04 06:59:07;;;;;;;;;;;21.20;92.10;;;;;;5096084;28;19908;-38
2023/06/04 07:01:33;;;;;;;;;;;21.20;92.20;;;;;;5096574;28;20004;-38
2023/06/04 07:03:59;;;;;;;;;;;21.20;92.30;;;;;;5096179;28;19915;-39
2023/06/04 07:06:24;;;;;;;;;;;21.20;92.30;;;;;;5095465;28;19916;-38
2023/06/04 07:08:50;;;;;;;;;;;21.20;92.30;;;;;;5096435;28;19916;-38
2023/06/04 07:11:16;;;;;;;;;;;21.20;91.30;;;;;;5095493;28;19926;-48
2023/06/04 07:13:42;;;;;;;;;;;21.20;87.00;;;;;;5110655;28;19931;-38
2023/06/04 07:16:07;;;;;;;;;;;21.10;85.30;;;;;;5099645;28;19912;-39
2023/06/04 07:18:33;;;;;;;;;;;21.10;84.30;;;;;;5116690;28;19908;-38
2023/06/04 07:20:58;;;;;;;;;;;21.10;83.80;;;;;;5100123;28;19920;-38
2023/06/04 07:23:24;;;;;;;;;;;21.10;83.60;;;;;;5095773;28;19931;-40
2023/06/04 07:25:49;;;;;;;;;;;21.10;83.60;;;;;;5094441;28;19966;-38
2023/06/04 07:28:15;;;;;;;;;;;21.10;83.80;;;;;;5095685;28;19915;-38
2023/06/04 07:30:40;;;;;;;;;;;21.10;83.90;;;;;;5095752;28;19912;-38
2023/06/04 07:33:06;;;;;;;;;;;21.10;84.10;;;;;;5095631;28;19975;-38
2023/06/04 07:35:32;;;;;;;;;;;21.10;84.20;;;;;;5095105;28;19912;-38
2023/06/04 07:37:57;;;;;;;;;;;21.10;84.50;;;;;;5115658;28;19908;-38
2023/06/04 07:40:22;;;;;;;;;;;21.10;85.30;;;;;;5113184;28;20010;-39
2023/06/04 07:42:48;;;;;;;;;;;21.10;85.50;;;;;;5115796;28;19930;-39
2023/06/04 07:45:14;;;;;;;;;;;21.10;86.10;;;;;;5096926;28;19931;-38
2023/06/04 07:47:40;;;;;;;;;;;21.10;86.50;;;;;;5093560;28;19920;-39
2023/06/04 07:50:05;;;;;;;;;;;21.10;86.80;;;;;;5095017;28;19981;-39
2023/06/04 07:52:31;;;;;;;;;;;21.10;86.80;;;;;;5095317;28;19947;-39
2023/06/04 07:54:57;;;;;;;;;;;21.10;86.60;;;;;;5093913;28;20424;-40
2023/06/04 07:57:23;;;;;;;;;;;21.10;87.00;;;;;;5111636;28;19912;-39
2023/06/04 07:59:49;;;;;;;;;;;21.10;87.50;;;;;;5094125;28;20287;-39
2023/06/04 08:02:15;;;;;;;;;;;21.10;87.80;;;;;;5094374;28;19958;-39
2023/06/04 08:04:41;;;;;;;;;;;21.10;88.20;;;;;;5093727;28;19966;-40
2023/06/04 08:07:06;;;;;;;;;;;21.10;88.30;;;;;;5093294;28;20305;-39
2023/06/04 08:09:32;;;;;;;;;;;21.10;88.40;;;;;;5092311;28;19922;-39
2023/06/04 08:11:57;;;;;;;;;;;21.10;88.80;;;;;;5098782;28;19999;-39
2023/06/04 08:14:26;;;;;;;;;;;21.10;89.00;;;;;;5105950;28;19912;-39
2023/06/04 08:16:52;;;;;;;;;;;21.10;89.10;;;;;;5099427;28;19951;-39
2023/06/04 08:19:17;;;;;;;;;;;21.20;89.50;;;;;;5094573;28;19931;-39
2023/06/04 08:21:44;;;;;;;;;;;21.10;89.40;;;;;;5094382;28;20002;-39
2023/06/04 08:24:10;;;;;;;;;;;21.20;89.60;;;;;;5094528;28;20339;-39
2023/06/04 08:26:35;;;;;;;;;;;21.10;89.60;;;;;;5094060;28;19916;-39
2023/06/04 08:29:04;;;;;;;;;;;21.20;89.90;;;;;;5094904;28;19998;-39
2023/06/04 08:31:30;;;;;;;;;;;21.10;89.90;;;;;;5094230;28;19909;-40
2023/06/04 08:33:55;;;;;;;;;;;21.10;90.00;;;;;;5094522;28;20255;-39
2023/06/04 08:36:21;;;;;;;;;;;21.10;89.90;;;;;;5094325;28;19998;-39
2023/06/04 08:38:50;;;;;;;;;;;21.10;90.00;;;;;;5094270;28;20275;-39
2023/06/04 08:41:20;;;;;;;;;;;21.20;90.00;;;;;;5094814;28;19915;-39
2023/06/04 08:43:46;;;;;;;;;;;21.10;90.00;;;;;;5094022;28;20162;-39
2023/06/04 08:46:13;;;;;;;;;;;21.10;90.00;;;;;;5094445;28;20427;-39
2023/06/04 08:48:39;;;;;;;;;;;21.20;89.70;;;;;;5094729;28;19965;-39
2023/06/04 08:51:05;;;;;;;;;;;21.10;89.60;;;;;;5094221;28;19911;-39
2023/06/04 08:53:31;;;;;;;;;;;21.20;89.80;;;;;;5093798;28;19908;-39
2023/06/04 08:55:56;;;;;;;;;;;21.10;90.00;;;;;;5094334;28;19908;-38
2023/06/04 08:58:22;;;;;;;;;;;21.10;89.70;;;;;;5094269;28;20347;-38
2023/06/04 09:00:48;;;;;;;;;;;21.10;89.90;;;;;;5094142;28;19908;-38
2023/06/04 09:03:14;;;;;;;;;;;21.10;89.90;;;;;;5094421;28;19915;-38
2023/06/04 09:05:45;;;;;;;;;;;21.20;89.90;;;;;;5093688;28;20286;-39
2023/06/04 09:08:12;;;;;;;;;;;21.10;89.90;;;;;;5094728;28;19927;-43
2023/06/04 09:10:38;;;;;;;;;;;21.10;90.00;;;;;;5109190;28;19912;-38
2023/06/04 09:13:03;;;;;;;;;;;21.20;90.10;;;;;;5105700;28;19927;-38
2023/06/04 09:15:29;;;;;;;;;;;21.10;90.00;;;;;;5101277;28;19912;-38
2023/06/04 09:17:54;;;;;;;;;;;21.20;89.70;;;;;;5093642;28;19909;-39
2023/06/04 09:20:21;;;;;;;;;;;21.10;89.70;;;;;;5094045;28;19940;-38
2023/06/04 09:22:46;;;;;;;;;;;21.10;89.80;;;;;;5094042;28;19912;-39
2023/06/04 09:25:19;;;;;;;;;;;21.20;89.80;;;;;;5093573;28;19908;-38
2023/06/04 09:27:45;;;;;;;;;;;21.20;90.00;;;;;;5094300;28;19962;-38
2023/06/04 09:30:10;;;;;;;;;;;21.20;90.10;;;;;;5094324;28;19912;-38
2023/06/04 09:32:36;;;;;;;;;;;21.20;90.00;;;;;;5093639;28;20007;-38
2023/06/04 09:35:12;;;;;;;;;;;21.10;89.90;;;;;;5093629;28;20321;-38
2023/06/04 09:37:38;;;;;;;;;;;21.20;89.80;;;;;;5093826;28;19930;-38
2023/06/04 09:40:05;;;;;;;;;;;21.20;90.00;;;;;;5093930;28;19908;-38
2023/06/04 09:42:41;;;;;;;;;;;21.20;90.10;;;;;;5093767;28;19916;-38
2023/06/04 09:45:06;;;;;;;;;;;21.20;90.10;;;;;;5075583;28;19927;-39
2023/06/04 09:47:39;;;;;;;;;;;21.20;90.00;;;;;;5093841;28;20004;-39
2023/06/04 09:50:06;;;;;;;;;;;21.20;90.00;;;;;;5093423;28;19908;-39
2023/06/04 09:52:33;;;;;;;;;;;21.20;90.10;;;;;;5093324;28;20260;-39
2023/06/04 09:54:58;;;;;;;;;;;21.20;90.20;;;;;;5093583;28;20250;-39
2023/06/04 09:57:25;;;;;;;;;;;21.20;90.10;;;;;;5093632;28;19908;-39
2023/06/04 09:59:51;;;;;;;;;;;21.20;90.10;;;;;;5093719;28;20333;-39
2023/06/04 10:02:20;;;;;;;;;;;21.20;90.10;;;;;;5093378;28;20317;-39
2023/06/04 10:04:52;;;;;;;;;;;21.20;90.10;;;;;;5093953;28;19957;-39
2023/06/04 10:07:18;;;;;;;;;;;21.20;90.10;;;;;;5096890;28;19912;-39
2023/06/04 10:09:47;;;;;;;;;;;21.20;90.10;;;;;;5096969;28;19912;-39
2023/06/04 10:12:16;;;;;;;;;;;21.20;90.10;;;;;;5097118;28;19908;-39
2023/06/04 10:14:45;;;;;;;;;;;21.20;90.00;;;;;;5096823;28;19977;-39
2023/06/04 10:17:12;;;;;;;;;;;21.20;89.70;;;;;;5096833;28;20256;-39
2023/06/04 10:19:38;;;;;;;;;;;21.20;89.50;;;;;;5096820;28;20007;-39
2023/06/04 10:22:04;;;;;;;;;;;21.20;89.90;;;;;;5096928;28;20397;-39
2023/06/04 10:24:30;;;;;;;;;;;21.20;90.00;;;;;;5097053;28;19915;-39
2023/06/04 10:26:58;;;;;;;;;;;21.20;89.90;;;;;;5096781;28;19916;-39
2023/06/04 10:29:25;;;;;;;;;;;21.20;90.00;;;;;;5096523;28;19949;-40
2023/06/04 10:31:53;;;;;;;;;;;21.20;90.00;;;;;;5096820;28;19908;-39
2023/06/04 10:34:18;;;;;;;;;;;21.20;90.00;;;;;;5097005;28;20365;-39
2023/06/04 10:36:45;;;;;;;;;;;21.20;90.00;;;;;;5096626;28;19908;-39
2023/06/04 10:39:11;;;;;;;;;;;21.20;89.90;;;;;;5096419;28;19908;-39
2023/06/04 10:41:36;;;;;;;;;;;21.20;89.70;;;;;;5096080;28;19908;-39
2023/06/04 10:44:02;;;;;;;;;;;21.20;89.60;;;;;;5096259;28;19920;-40
2023/06/04 10:46:37;;;;;;;;;;;21.20;89.50;;;;;;5096367;28;19912;-39
2023/06/04 10:49:02;;;;;;;;;;;21.20;89.80;;;;;;5078129;28;20011;-40
2023/06/04 10:51:30;;;;;;;;;;;21.20;90.10;;;;;;5096397;28;19999;-39
2023/06/04 10:53:56;;;;;;;;;;;21.20;90.00;;;;;;5096364;28;19958;-39
2023/06/04 10:56:32;;;;;;;;;;;21.20;89.80;;;;;;5096216;28;19922;-39
2023/06/04 10:58:58;;;;;;;;;;;21.20;89.80;;;;;;5095932;28;20007;-39
2023/06/04 11:01:31;;;;;;;;;;;21.20;89.60;;;;;;5096089;28;19948;-39
2023/06/04 11:03:57;;;;;;;;;;;21.20;89.40;;;;;;5096225;28;20002;-39
2023/06/04 11:06:22;;;;;;;;;;;21.20;89.40;;;;;;5097491;28;20027;-39
2023/06/04 11:08:48;;;;;;;;;;;21.20;89.60;;;;;;5096353;28;19967;-39
2023/06/04 11:11:14;;;;;;;;;;;21.20;89.90;;;;;;5093835;28;19912;-39
2023/06/04 11:13:40;;;;;;;;;;;21.20;89.90;;;;;;5094893;28;20320;-39
2023/06/04 11:16:16;;;;;;;;;;;21.20;89.80;;;;;;5112624;28;20409;-39
2023/06/04 11:18:41;;;;;;;;;;;21.20;89.70;;;;;;5109204;28;20010;-39
2023/06/04 11:21:07;;;;;;;;;;;21.20;89.50;;;;;;5095483;28;20009;-39
2023/06/04 11:23:33;;;;;;;;;;;21.20;89.70;;;;;;5095646;28;19953;-39
2023/06/04 11:25:59;;;;;;;;;;;21.20;89.70;;;;;;5095216;28;19912;-39
2023/06/04 11:28:24;;;;;;;;;;;21.20;89.60;;;;;;5096103;28;19919;-39
2023/06/04 11:30:57;;;;;;;;;;;21.20;89.50;;;;;;5095719;28;19978;-39
2023/06/04 11:33:22;;;;;;;;;;;21.20;89.30;;;;;;5110767;28;20006;-40
2023/06/04 11:35:47;;;;;;;;;;;21.20;89.40;;;;;;5094403;28;19991;-39
2023/06/04 11:38:13;;;;;;;;;;;21.20;89.80;;;;;;5093919;28;19980;-40
2023/06/04 11:40:38;;;;;;;;;;;21.20;89.80;;;;;;5100507;28;19912;-39
2023/06/04 11:43:05;;;;;;;;;;;21.20;89.70;;;;;;5112493;28;19908;-40
2023/06/04 11:45:30;;;;;;;;;;;21.20;89.70;;;;;;5093665;28;19990;-39
2023/06/04 11:47:56;;;;;;;;;;;21.20;89.50;;;;;;5095304;28;20371;-39
2023/06/04 11:50:23;;;;;;;;;;;21.20;89.30;;;;;;5094967;28;19943;-39
2023/06/04 11:52:49;;;;;;;;;;;21.20;89.20;;;;;;5095214;28;19908;-39
2023/06/04 11:55:15;;;;;;;;;;;21.20;89.50;;;;;;5094852;28;19930;-39
2023/06/04 11:57:40;;;;;;;;;;;21.20;89.50;;;;;;5094830;28;19958;-39
2023/06/04 12:00:10;;;;;;;;;;;21.20;89.50;;;;;;5094755;28;20398;-39
2023/06/04 12:02:36;;;;;;;;;;;21.20;89.50;;;;;;5095031;28;19908;-39
2023/06/04 12:05:14;;;;;;;;;;;21.20;89.70;;;;;;5076497;28;19959;-39
2023/06/04 12:07:41;;;;;;;;;;;21.20;89.60;;;;;;5095052;28;19916;-39
2023/06/04 12:10:08;;;;;;;;;;;21.20;89.40;;;;;;5094943;28;19916;-39
2023/06/04 12:12:34;;;;;;;;;;;21.20;89.20;;;;;;5094531;28;19914;-39
2023/06/04 12:15:00;;;;;;;;;;;21.20;89.30;;;;;;5094557;28;19915;-39
2023/06/04 12:17:26;;;;;;;;;;;21.20;89.30;;;;;;5094818;28;19912;-39
2023/06/04 12:19:52;;;;;;;;;;;21.20;89.30;;;;;;5094840;28;20003;-39
2023/06/04 12:22:17;;;;;;;;;;;21.20;89.50;;;;;;5094936;28;19908;-39
2023/06/04 12:24:47;;;;;;;;;;;21.20;89.40;;;;;;5094319;28;19909;-39
2023/06/04 12:27:12;;;;;;;;;;;21.20;89.40;;;;;;5094050;28;19971;-39
2023/06/04 12:29:38;;;;;;;;;;;21.20;89.50;;;;;;5094226;28;20003;-39
2023/06/04 12:32:05;;;;;;;;;;;21.20;89.40;;;;;;5094344;28;19908;-39
2023/06/04 12:34:31;;;;;;;;;;;21.20;89.20;;;;;;5094590;28;19969;-39
2023/06/04 12:36:57;;;;;;;;;;;21.20;89.20;;;;;;5094230;28;19908;-39
2023/06/04 12:39:22;;;;;;;;;;;21.20;89.20;;;;;;5094457;28;20309;-39
2023/06/04 12:41:48;;;;;;;;;;;21.20;89.50;;;;;;5094157;28;20374;-39
2023/06/04 12:44:13;;;;;;;;;;;21.20;89.40;;;;;;5094225;28;19968;-39
2023/06/04 12:46:41;;;;;;;;;;;21.30;89.30;;;;;;5093431;28;21552;-39
2023/06/04 12:49:06;;;;;;;;;;;21.20;89.40;;;;;;5092955;28;19948;-40
2023/06/04 12:51:31;;;;;;;;;;;21.20;89.30;;;;;;5094247;28;19946;-39
2023/06/04 12:53:57;;;;;;;;;;;21.20;89.40;;;;;;5094368;28;19987;-39
2023/06/04 12:56:23;;;;;;;;;;;21.20;89.70;;;;;;5094216;28;20385;-39
2023/06/04 12:58:48;;;;;;;;;;;21.20;89.50;;;;;;5094146;28;19908;-39
2023/06/04 13:01:15;;;;;;;;;;;21.20;89.20;;;;;;5094245;28;20359;-39
2023/06/04 13:03:40;;;;;;;;;;;21.20;89.20;;;;;;5094220;28;19967;-39
2023/06/04 13:06:06;;;;;;;;;;;21.20;89.30;;;;;;5075596;28;19967;-40
2023/06/04 13:08:32;;;;;;;;;;;21.20;89.60;;;;;;5094188;28;19908;-39
2023/06/04 13:10:57;;;;;;;;;;;21.20;89.40;;;;;;5100263;28;20388;-39
2023/06/04 13:13:23;;;;;;;;;;;21.30;89.60;;;;;;5114432;28;19939;-39
2023/06/04 13:15:48;;;;;;;;;;;21.30;89.60;;;;;;5114380;28;20232;-39
2023/06/04 13:18:14;;;;;;;;;;;21.30;89.50;;;;;;5114535;28;19923;-39
2023/06/04 13:20:40;;;;;;;;;;;21.30;89.50;;;;;;5114345;28;19915;-39
2023/06/04 13:23:06;;;;;;;;;;;21.30;89.60;;;;;;5109837;28;19912;-39
2023/06/04 13:25:33;;;;;;;;;;;21.30;89.80;;;;;;5092866;28;19913;-39
2023/06/04 13:27:59;;;;;;;;;;;21.30;89.90;;;;;;5088130;28;20011;-39
2023/06/04 13:30:24;;;;;;;;;;;21.30;90.00;;;;;;5095057;28;20331;-39
2023/06/04 13:32:50;;;;;;;;;;;21.30;89.70;;;;;;5093853;28;20343;-39
2023/06/04 13:35:15;;;;;;;;;;;21.30;89.40;;;;;;5093866;28;20286;-39
2023/06/04 13:37:40;;;;;;;;;;;21.30;89.60;;;;;;5093573;28;19912;-39
2023/06/04 13:40:06;;;;;;;;;;;21.30;89.50;;;;;;5095350;28;19908;-40
2023/06/04 13:42:32;;;;;;;;;;;21.30;89.70;;;;;;5097710;28;19957;-38
2023/06/04 13:44:58;;;;;;;;;;;21.30;90.00;;;;;;5098375;28;19963;-39
2023/06/04 13:47:24;;;;;;;;;;;21.30;90.00;;;;;;5099991;28;20442;-39
2023/06/04 13:49:49;;;;;;;;;;;21.30;90.00;;;;;;5110638;28;19912;-39
2023/06/04 13:52:15;;;;;;;;;;;21.30;89.70;;;;;;5114314;28;19915;-39
2023/06/04 13:54:40;;;;;;;;;;;21.30;89.70;;;;;;5107627;28;20262;-39
2023/06/04 13:57:06;;;;;;;;;;;21.30;89.70;;;;;;5098282;28;19923;-39
2023/06/04 13:59:34;;;;;;;;;;;21.30;89.80;;;;;;5097140;28;19908;-39
2023/06/04 14:02:00;;;;;;;;;;;21.30;89.70;;;;;;5097509;28;20262;-39
2023/06/04 14:04:25;;;;;;;;;;;21.30;90.00;;;;;;5097135;28;19912;-39
2023/06/04 14:06:51;;;;;;;;;;;21.30;89.90;;;;;;5097253;28;19916;-39
2023/06/04 14:09:16;;;;;;;;;;;21.30;89.80;;;;;;5097282;28;20042;-39
2023/06/04 14:11:42;;;;;;;;;;;21.30;89.80;;;;;;5097256;28;19908;-39